sensor_id;sensor_type;location;lat;lon;timestamp;temperature;humidity
31675;DHT22;18276;45.520;11.018;2023-03-23T00:01:25;13.10;70.00
31675;DHT22;18276;45.520;11.018;2023-03-23T00:03:56;13.10;70.20
31675;DHT22;18276;45.520;11.018;2023-03-23T00:06:24;13.00;70.40
31675;DHT22;18276;45.520;11.018;2023-03-23T00:08:52;13.00;70.50
31675;DHT22;18276;45.520;11.018;2023-03-23T00:11:27;13.00;70.70
31675;DHT22;18276;45.520;11.018;2023-03-23T00:13:58;12.90;70.90
31675;DHT22;18276;45.520;11.018;2023-03-23T00:16:28;12.90;71.00
31675;DHT22;18276;45.520;11.018;2023-03-23T00:19:03;12.90;71.00
31675;DHT22;18276;45.520;11.018;2023-03-23T00:21:33;12.90;71.10
31675;DHT22;18276;45.520;11.018;2023-03-23T00:24:16;12.90;71.20
31675;DHT22;18276;45.520;11.018;2023-03-23T00:26:45;12.90;71.40
31675;DHT22;18276;45.520;11.018;2023-03-23T00:29:21;12.90;71.50
31675;DHT22;18276;45.520;11.018;2023-03-23T00:31:50;12.80;71.70
31675;DHT22;18276;45.520;11.018;2023-03-23T00:34:21;12.80;71.60
31675;DHT22;18276;45.520;11.018;2023-03-23T00:36:52;12.80;72.60
31675;DHT22;18276;45.520;11.018;2023-03-23T00:39:23;12.80;72.00
31675;DHT22;18276;45.520;11.018;2023-03-23T00:41:51;12.80;72.00
31675;DHT22;18276;45.520;11.018;2023-03-23T00:44:17;12.70;72.00
31675;DHT22;18276;45.520;11.018;2023-03-23T00:46:47;12.70;72.00
31675;DHT22;18276;45.520;11.018;2023-03-23T00:49:18;12.80;72.20
31675;DHT22;18276;45.520;11.018;2023-03-23T00:51:45;12.80;72.20
31675;DHT22;18276;45.520;11.018;2023-03-23T00:54:11;12.80;72.20
31675;DHT22;18276;45.520;11.018;2023-03-23T00:56:38;12.80;72.20
31675;DHT22;18276;45.520;11.018;2023-03-23T00:59:07;12.80;72.10
31675;DHT22;18276;45.520;11.018;2023-03-23T01:01:34;12.90;72.20
31675;DHT22;18276;45.520;11.018;2023-03-23T01:04:02;12.90;72.20
31675;DHT22;18276;45.520;11.018;2023-03-23T01:06:37;12.90;72.20
31675;DHT22;18276;45.520;11.018;2023-03-23T01:09:11;12.90;72.30
31675;DHT22;18276;45.520;11.018;2023-03-23T01:11:41;12.90;72.20
31675;DHT22;18276;45.520;11.018;2023-03-23T01:14:08;12.90;72.20
31675;DHT22;18276;45.520;11.018;2023-03-23T01:16:34;12.90;72.30
31675;DHT22;18276;45.520;11.018;2023-03-23T01:19:00;12.90;72.30
31675;DHT22;18276;45.520;11.018;2023-03-23T01:21:26;12.90;72.30
31675;DHT22;18276;45.520;11.018;2023-03-23T01:23:52;12.90;72.40
31675;DHT22;18276;45.520;11.018;2023-03-23T01:26:21;12.90;72.40
31675;DHT22;18276;45.520;11.018;2023-03-23T01:28:48;12.90;72.60
31675;DHT22;18276;45.520;11.018;2023-03-23T01:31:19;12.80;72.50
31675;DHT22;18276;45.520;11.018;2023-03-23T01:33:45;12.80;72.70
31675;DHT22;18276;45.520;11.018;2023-03-23T01:36:14;12.70;72.80
31675;DHT22;18276;45.520;11.018;2023-03-23T01:38:43;12.80;73.00
31675;DHT22;18276;45.520;11.018;2023-03-23T01:41:10;12.70;72.90
31675;DHT22;18276;45.520;11.018;2023-03-23T01:44:08;12.70;73.00
31675;DHT22;18276;45.520;11.018;2023-03-23T01:46:40;12.80;73.10
31675;DHT22;18276;45.520;11.018;2023-03-23T01:49:17;12.70;72.90
31675;DHT22;18276;45.520;11.018;2023-03-23T01:51:57;12.80;73.00
31675;DHT22;18276;45.520;11.018;2023-03-23T01:54:24;12.80;72.90
31675;DHT22;18276;45.520;11.018;2023-03-23T01:57:07;12.80;72.90
31675;DHT22;18276;45.520;11.018;2023-03-23T01:59:35;12.80;73.00
31675;DHT22;18276;45.520;11.018;2023-03-23T02:02:22;12.70;72.90
31675;DHT22;18276;45.520;11.018;2023-03-23T02:04:48;12.80;72.90
31675;DHT22;18276;45.520;11.018;2023-03-23T02:07:18;12.70;72.90
31675;DHT22;18276;45.520;11.018;2023-03-23T02:09:49;12.70;73.00
31675;DHT22;18276;45.520;11.018;2023-03-23T02:12:15;12.70;73.10
31675;DHT22;18276;45.520;11.018;2023-03-23T02:14:41;12.70;73.20
31675;DHT22;18276;45.520;11.018;2023-03-23T02:17:24;12.60;73.30
31675;DHT22;18276;45.520;11.018;2023-03-23T02:20:01;12.60;73.70
31675;DHT22;18276;45.520;11.018;2023-03-23T02:30:33;12.50;74.30
31675;DHT22;18276;45.520;11.018;2023-03-23T02:35:39;12.40;74.30
31675;DHT22;18276;45.520;11.018;2023-03-23T02:38:21;12.40;74.40
31675;DHT22;18276;45.520;11.018;2023-03-23T02:40:49;12.40;74.40
31675;DHT22;18276;45.520;11.018;2023-03-23T02:43:21;12.40;74.40
31675;DHT22;18276;45.520;11.018;2023-03-23T02:45:50;12.40;74.40
31675;DHT22;18276;45.520;11.018;2023-03-23T02:48:20;12.50;74.30
31675;DHT22;18276;45.520;11.018;2023-03-23T02:50:51;12.50;74.40
31675;DHT22;18276;45.520;11.018;2023-03-23T02:53:22;12.50;74.30
31675;DHT22;18276;45.520;11.018;2023-03-23T02:55:52;12.50;74.30
31675;DHT22;18276;45.520;11.018;2023-03-23T02:58:21;12.50;74.20
31675;DHT22;18276;45.520;11.018;2023-03-23T03:00:51;12.50;74.20
31675;DHT22;18276;45.520;11.018;2023-03-23T03:03:23;12.50;74.30
31675;DHT22;18276;45.520;11.018;2023-03-23T03:06:27;12.50;74.20
31675;DHT22;18276;45.520;11.018;2023-03-23T03:09:19;12.50;74.30
31675;DHT22;18276;45.520;11.018;2023-03-23T03:11:50;12.50;74.30
31675;DHT22;18276;45.520;11.018;2023-03-23T03:14:24;12.40;74.00
31675;DHT22;18276;45.520;11.018;2023-03-23T03:16:53;12.50;74.30
31675;DHT22;18276;45.520;11.018;2023-03-23T03:21:54;12.50;74.30
31675;DHT22;18276;45.520;11.018;2023-03-23T03:24:29;12.50;74.30
31675;DHT22;18276;45.520;11.018;2023-03-23T03:26:58;12.50;74.30
31675;DHT22;18276;45.520;11.018;2023-03-23T03:29:41;12.50;74.30
31675;DHT22;18276;45.520;11.018;2023-03-23T03:32:14;12.50;74.20
31675;DHT22;18276;45.520;11.018;2023-03-23T03:34:41;12.50;74.10
31675;DHT22;18276;45.520;11.018;2023-03-23T03:37:07;12.50;74.10
31675;DHT22;18276;45.520;11.018;2023-03-23T03:39:35;12.50;74.00
31675;DHT22;18276;45.520;11.018;2023-03-23T03:42:04;12.50;73.90
31675;DHT22;18276;45.520;11.018;2023-03-23T03:44:32;12.60;73.80
31675;DHT22;18276;45.520;11.018;2023-03-23T03:46:58;12.60;73.60
31675;DHT22;18276;45.520;11.018;2023-03-23T03:49:23;12.60;73.50
31675;DHT22;18276;45.520;11.018;2023-03-23T03:51:50;12.60;73.50
31675;DHT22;18276;45.520;11.018;2023-03-23T03:54:21;12.60;73.40
31675;DHT22;18276;45.520;11.018;2023-03-23T03:56:47;12.60;73.40
31675;DHT22;18276;45.520;11.018;2023-03-23T03:59:43;12.60;73.50
31675;DHT22;18276;45.520;11.018;2023-03-23T04:02:12;12.60;73.40
31675;DHT22;18276;45.520;11.018;2023-03-23T04:04:40;12.60;73.50
31675;DHT22;18276;45.520;11.018;2023-03-23T04:07:07;12.60;73.30
31675;DHT22;18276;45.520;11.018;2023-03-23T04:09:37;12.60;73.40
31675;DHT22;18276;45.520;11.018;2023-03-23T04:12:04;12.60;73.40
31675;DHT22;18276;45.520;11.018;2023-03-23T04:14:53;12.50;73.40
31675;DHT22;18276;45.520;11.018;2023-03-23T04:17:19;12.50;74.30
31675;DHT22;18276;45.520;11.018;2023-03-23T04:19:46;12.50;73.60
31675;DHT22;18276;45.520;11.018;2023-03-23T04:22:14;12.40;73.80
31675;DHT22;18276;45.520;11.018;2023-03-23T04:24:43;12.40;74.10
31675;DHT22;18276;45.520;11.018;2023-03-23T04:27:14;12.40;74.30
31675;DHT22;18276;45.520;11.018;2023-03-23T04:29:41;12.30;74.30
31675;DHT22;18276;45.520;11.018;2023-03-23T04:32:30;12.30;74.70
31675;DHT22;18276;45.520;11.018;2023-03-23T04:34:57;12.30;74.30
31675;DHT22;18276;45.520;11.018;2023-03-23T04:37:30;12.20;74.40
31675;DHT22;18276;45.520;11.018;2023-03-23T04:40:01;12.30;74.50
31675;DHT22;18276;45.520;11.018;2023-03-23T04:42:31;12.30;74.50
31675;DHT22;18276;45.520;11.018;2023-03-23T04:45:23;12.20;74.50
31675;DHT22;18276;45.520;11.018;2023-03-23T04:47:52;12.20;74.60
31675;DHT22;18276;45.520;11.018;2023-03-23T04:50:32;12.20;74.60
31675;DHT22;18276;45.520;11.018;2023-03-23T04:53:05;12.20;74.70
31675;DHT22;18276;45.520;11.018;2023-03-23T04:55:34;12.10;74.80
31675;DHT22;18276;45.520;11.018;2023-03-23T04:58:05;12.10;75.10
31675;DHT22;18276;45.520;11.018;2023-03-23T05:00:36;12.00;75.10
31675;DHT22;18276;45.520;11.018;2023-03-23T05:03:03;12.00;75.90
31675;DHT22;18276;45.520;11.018;2023-03-23T05:05:31;12.10;75.00
31675;DHT22;18276;45.520;11.018;2023-03-23T05:08:03;12.10;74.80
31675;DHT22;18276;45.520;11.018;2023-03-23T05:10:32;12.10;74.50
31675;DHT22;18276;45.520;11.018;2023-03-23T05:13:04;12.20;74.40
31675;DHT22;18276;45.520;11.018;2023-03-23T05:15:30;12.20;74.30
31675;DHT22;18276;45.520;11.018;2023-03-23T05:17:57;12.20;74.30
31675;DHT22;18276;45.520;11.018;2023-03-23T05:20:24;12.20;74.30
31675;DHT22;18276;45.520;11.018;2023-03-23T05:22:55;12.20;74.40
31675;DHT22;18276;45.520;11.018;2023-03-23T05:25:28;12.20;74.50
31675;DHT22;18276;45.520;11.018;2023-03-23T05:28:02;12.20;74.50
31675;DHT22;18276;45.520;11.018;2023-03-23T05:30:49;12.20;74.50
31675;DHT22;18276;45.520;11.018;2023-03-23T05:33:16;12.20;74.50
31675;DHT22;18276;45.520;11.018;2023-03-23T05:35:47;12.20;74.50
31675;DHT22;18276;45.520;11.018;2023-03-23T05:38:15;12.20;74.70
31675;DHT22;18276;45.520;11.018;2023-03-23T05:40:42;12.20;75.00
31675;DHT22;18276;45.520;11.018;2023-03-23T05:43:14;12.20;75.20
31675;DHT22;18276;45.520;11.018;2023-03-23T05:45:55;12.20;75.30
31675;DHT22;18276;45.520;11.018;2023-03-23T05:48:21;12.20;75.20
31675;DHT22;18276;45.520;11.018;2023-03-23T05:50:47;12.20;75.00
31675;DHT22;18276;45.520;11.018;2023-03-23T05:53:13;12.30;74.80
31675;DHT22;18276;45.520;11.018;2023-03-23T05:55:39;12.40;74.60
31675;DHT22;18276;45.520;11.018;2023-03-23T05:58:18;12.50;74.30
31675;DHT22;18276;45.520;11.018;2023-03-23T06:00:45;12.60;73.80
31675;DHT22;18276;45.520;11.018;2023-03-23T06:03:21;12.70;73.60
31675;DHT22;18276;45.520;11.018;2023-03-23T06:06:03;12.80;73.40
31675;DHT22;18276;45.520;11.018;2023-03-23T06:08:43;12.90;73.20
31675;DHT22;18276;45.520;11.018;2023-03-23T06:11:10;13.00;72.90
31675;DHT22;18276;45.520;11.018;2023-03-23T06:13:43;13.10;72.70
31675;DHT22;18276;45.520;11.018;2023-03-23T06:16:10;13.40;72.40
31675;DHT22;18276;45.520;11.018;2023-03-23T06:18:51;13.50;71.70
31675;DHT22;18276;45.520;11.018;2023-03-23T06:21:32;13.60;71.30
31675;DHT22;18276;45.520;11.018;2023-03-23T06:24:21;13.80;70.90
31675;DHT22;18276;45.520;11.018;2023-03-23T06:26:48;14.00;70.20
31675;DHT22;18276;45.520;11.018;2023-03-23T06:29:20;14.10;69.80
31675;DHT22;18276;45.520;11.018;2023-03-23T06:31:54;14.30;69.50
31675;DHT22;18276;45.520;11.018;2023-03-23T06:34:21;14.40;69.20
31675;DHT22;18276;45.520;11.018;2023-03-23T06:37:06;14.90;69.00
31675;DHT22;18276;45.520;11.018;2023-03-23T06:39:43;15.50;67.60
31675;DHT22;18276;45.520;11.018;2023-03-23T06:42:23;16.00;66.40
31675;DHT22;18276;45.520;11.018;2023-03-23T06:45:12;16.40;65.10
31675;DHT22;18276;45.520;11.018;2023-03-23T06:47:39;16.50;63.80
31675;DHT22;18276;45.520;11.018;2023-03-23T06:50:05;16.40;63.30
31675;DHT22;18276;45.520;11.018;2023-03-23T06:52:33;16.20;63.20
31675;DHT22;18276;45.520;11.018;2023-03-23T06:54:59;16.20;63.70
31675;DHT22;18276;45.520;11.018;2023-03-23T06:57:25;16.10;64.00
31675;DHT22;18276;45.520;11.018;2023-03-23T06:59:52;16.20;64.00
31675;DHT22;18276;45.520;11.018;2023-03-23T07:02:20;16.30;63.80
31675;DHT22;18276;45.520;11.018;2023-03-23T07:04:49;16.80;64.00
31675;DHT22;18276;45.520;11.018;2023-03-23T07:07:21;17.20;62.60
31675;DHT22;18276;45.520;11.018;2023-03-23T07:10:08;17.40;61.40
31675;DHT22;18276;45.520;11.018;2023-03-23T07:12:35;17.60;60.20
31675;DHT22;18276;45.520;11.018;2023-03-23T07:15:03;17.90;60.10
31675;DHT22;18276;45.520;11.018;2023-03-23T07:17:29;18.00;59.20
31675;DHT22;18276;45.520;11.018;2023-03-23T07:20:10;17.80;59.00
31675;DHT22;18276;45.520;11.018;2023-03-23T07:22:37;17.40;59.50
31675;DHT22;18276;45.520;11.018;2023-03-23T07:25:12;17.00;60.40
31675;DHT22;18276;45.520;11.018;2023-03-23T07:27:47;16.70;61.40
31675;DHT22;18276;45.520;11.018;2023-03-23T07:30:15;16.60;62.10
31675;DHT22;18276;45.520;11.018;2023-03-23T07:32:41;16.70;62.20
31675;DHT22;18276;45.520;11.018;2023-03-23T07:35:09;17.10;61.50
31675;DHT22;18276;45.520;11.018;2023-03-23T07:37:54;17.60;60.10
31675;DHT22;18276;45.520;11.018;2023-03-23T07:40:21;17.90;59.00
31675;DHT22;18276;45.520;11.018;2023-03-23T07:42:56;18.40;58.40
31675;DHT22;18276;45.520;11.018;2023-03-23T07:45:38;19.10;57.50
31675;DHT22;18276;45.520;11.018;2023-03-23T07:48:05;20.40;56.00
31675;DHT22;18276;45.520;11.018;2023-03-23T07:50:32;21.60;53.40
31675;DHT22;18276;45.520;11.018;2023-03-23T07:53:01;22.80;51.10
31675;DHT22;18276;45.520;11.018;2023-03-23T07:55:29;23.90;48.70
31675;DHT22;18276;45.520;11.018;2023-03-23T07:58:21;24.50;46.60
31675;DHT22;18276;45.520;11.018;2023-03-23T08:00:53;24.60;45.10
31675;DHT22;18276;45.520;11.018;2023-03-23T08:03:22;24.60;44.70
31675;DHT22;18276;45.520;11.018;2023-03-23T08:06:06;24.40;44.50
31675;DHT22;18276;45.520;11.018;2023-03-23T08:08:55;23.60;44.80
31675;DHT22;18276;45.520;11.018;2023-03-23T08:12:00;22.50;46.60
31675;DHT22;18276;45.520;11.018;2023-03-23T08:14:45;21.80;48.40
31675;DHT22;18276;45.520;11.018;2023-03-23T08:17:27;21.70;49.20
31675;DHT22;18276;45.520;11.018;2023-03-23T08:20:13;21.70;49.40
31675;DHT22;18276;45.520;11.018;2023-03-23T08:23:07;21.40;49.70
31675;DHT22;18276;45.520;11.018;2023-03-23T08:25:50;21.80;49.70
31675;DHT22;18276;45.520;11.018;2023-03-23T08:28:24;22.60;48.20
31675;DHT22;18276;45.520;11.018;2023-03-23T08:31:09;23.10;47.30
31675;DHT22;18276;45.520;11.018;2023-03-23T08:34:11;23.10;46.80
31675;DHT22;18276;45.520;11.018;2023-03-23T08:36:55;22.30;47.40
31675;DHT22;18276;45.520;11.018;2023-03-23T08:39:41;21.40;48.80
31675;DHT22;18276;45.520;11.018;2023-03-23T08:42:26;20.70;50.20
31675;DHT22;18276;45.520;11.018;2023-03-23T08:44:52;20.00;51.60
31675;DHT22;18276;45.520;11.018;2023-03-23T08:47:38;19.60;52.70
31675;DHT22;18276;45.520;11.018;2023-03-23T08:50:17;19.30;53.40
31675;DHT22;18276;45.520;11.018;2023-03-23T08:52:46;19.20;53.90
31675;DHT22;18276;45.520;11.018;2023-03-23T08:55:28;19.30;54.50
31675;DHT22;18276;45.520;11.018;2023-03-23T08:58:14;20.00;53.90
31675;DHT22;18276;45.520;11.018;2023-03-23T09:01:07;21.00;52.50
31675;DHT22;18276;45.520;11.018;2023-03-23T09:03:42;22.00;50.80
31675;DHT22;18276;45.520;11.018;2023-03-23T09:06:21;23.20;48.80
31675;DHT22;18276;45.520;11.018;2023-03-23T09:08:47;24.30;46.40
31675;DHT22;18276;45.520;11.018;2023-03-23T09:11:14;24.80;44.90
31675;DHT22;18276;45.520;11.018;2023-03-23T09:13:39;24.80;44.30
31675;DHT22;18276;45.520;11.018;2023-03-23T09:16:06;25.00;44.20
31675;DHT22;18276;45.520;11.018;2023-03-23T09:18:32;25.30;43.50
31675;DHT22;18276;45.520;11.018;2023-03-23T09:20:59;25.50;42.90
31675;DHT22;18276;45.520;11.018;2023-03-23T09:23:25;25.40;43.00
31675;DHT22;18276;45.520;11.018;2023-03-23T09:25:51;25.60;43.00
31675;DHT22;18276;45.520;11.018;2023-03-23T09:28:17;26.00;42.50
31675;DHT22;18276;45.520;11.018;2023-03-23T09:30:44;26.50;41.60
31675;DHT22;18276;45.520;11.018;2023-03-23T09:33:11;26.80;41.00
31675;DHT22;18276;45.520;11.018;2023-03-23T09:35:37;27.10;40.70
31675;DHT22;18276;45.520;11.018;2023-03-23T09:38:04;27.50;40.20
31675;DHT22;18276;45.520;11.018;2023-03-23T09:40:47;28.10;39.30
31675;DHT22;18276;45.520;11.018;2023-03-23T09:43:22;28.40;38.90
31675;DHT22;18276;45.520;11.018;2023-03-23T09:48:54;29.00;37.30
31675;DHT22;18276;45.520;11.018;2023-03-23T09:53:51;28.90;37.00
31675;DHT22;18276;45.520;11.018;2023-03-23T09:56:18;29.30;36.30
31675;DHT22;18276;45.520;11.018;2023-03-23T09:58:52;29.40;35.30
31675;DHT22;18276;45.520;11.018;2023-03-23T10:01:23;29.30;35.20
31675;DHT22;18276;45.520;11.018;2023-03-23T10:03:55;29.30;35.60
31675;DHT22;18276;45.520;11.018;2023-03-23T10:06:23;29.80;35.20
31675;DHT22;18276;45.520;11.018;2023-03-23T10:08:52;30.30;34.50
31675;DHT22;18276;45.520;11.018;2023-03-23T10:11:25;30.00;33.90
31675;DHT22;18276;45.520;11.018;2023-03-23T10:16:22;29.10;35.30
31675;DHT22;18276;45.520;11.018;2023-03-23T10:21:17;27.60;37.80
31675;DHT22;18276;45.520;11.018;2023-03-23T10:29:13;28.30;37.30
31675;DHT22;18276;45.520;11.018;2023-03-23T10:31:42;28.20;37.10
31675;DHT22;18276;45.520;11.018;2023-03-23T10:36:51;26.00;40.20
31675;DHT22;18276;45.520;11.018;2023-03-23T10:39:20;26.10;40.80
31675;DHT22;18276;45.520;11.018;2023-03-23T10:41:48;26.60;40.00
31675;DHT22;18276;45.520;11.018;2023-03-23T10:44:18;26.50;39.70
31675;DHT22;18276;45.520;11.018;2023-03-23T10:46:45;26.20;40.00
31675;DHT22;18276;45.520;11.018;2023-03-23T10:49:18;25.90;40.50
31675;DHT22;18276;45.520;11.018;2023-03-23T10:51:47;25.70;40.90
31675;DHT22;18276;45.520;11.018;2023-03-23T10:54:25;25.40;41.10
31675;DHT22;18276;45.520;11.018;2023-03-23T10:56:51;25.00;41.90
31675;DHT22;18276;45.520;11.018;2023-03-23T10:59:21;25.10;42.60
31675;DHT22;18276;45.520;11.018;2023-03-23T11:01:53;26.00;41.80
31675;DHT22;18276;45.520;11.018;2023-03-23T11:04:20;27.10;40.50
31675;DHT22;18276;45.520;11.018;2023-03-23T11:06:48;28.00;38.70
31675;DHT22;18276;45.520;11.018;2023-03-23T11:09:15;28.70;37.60
31675;DHT22;18276;45.520;11.018;2023-03-23T11:11:43;29.10;36.20
31675;DHT22;18276;45.520;11.018;2023-03-23T11:14:16;29.20;35.80
31675;DHT22;18276;45.520;11.018;2023-03-23T11:16:43;29.50;35.60
31675;DHT22;18276;45.520;11.018;2023-03-23T11:19:14;29.90;35.20
31675;DHT22;18276;45.520;11.018;2023-03-23T11:21:40;30.50;34.30
31675;DHT22;18276;45.520;11.018;2023-03-23T11:24:11;30.90;34.10
31675;DHT22;18276;45.520;11.018;2023-03-23T11:26:37;30.70;33.50
31675;DHT22;18276;45.520;11.018;2023-03-23T11:29:18;30.00;34.00
31675;DHT22;18276;45.520;11.018;2023-03-23T11:31:47;29.10;35.00
31675;DHT22;18276;45.520;11.018;2023-03-23T11:34:16;27.90;36.60
31675;DHT22;18276;45.520;11.018;2023-03-23T11:36:47;27.20;37.80
31675;DHT22;18276;45.520;11.018;2023-03-23T11:39:33;26.50;39.00
31675;DHT22;18276;45.520;11.018;2023-03-23T11:42:00;25.70;40.30
31675;DHT22;18276;45.520;11.018;2023-03-23T11:44:33;25.10;41.90
31675;DHT22;18276;45.520;11.018;2023-03-23T11:47:13;25.00;42.20
31675;DHT22;18276;45.520;11.018;2023-03-23T11:52:21;24.60;42.80
31675;DHT22;18276;45.520;11.018;2023-03-23T11:55:03;24.40;43.50
31675;DHT22;18276;45.520;11.018;2023-03-23T11:57:30;24.50;43.70
31675;DHT22;18276;45.520;11.018;2023-03-23T11:59:56;25.10;43.50
31675;DHT22;18276;45.520;11.018;2023-03-23T12:04:56;26.00;42.20
31675;DHT22;18276;45.520;11.018;2023-03-23T12:12:24;29.40;37.60
31675;DHT22;18276;45.520;11.018;2023-03-23T12:20:18;30.80;34.30
31675;DHT22;18276;45.520;11.018;2023-03-23T12:22:53;31.10;34.20
31675;DHT22;18276;45.520;11.018;2023-03-23T12:27:57;30.50;34.70
31675;DHT22;18276;45.520;11.018;2023-03-23T12:30:35;30.40;35.20
31675;DHT22;18276;45.520;11.018;2023-03-23T12:35:34;30.60;34.20
31675;DHT22;18276;45.520;11.018;2023-03-23T12:40:58;30.60;35.00
31675;DHT22;18276;45.520;11.018;2023-03-23T12:43:43;31.00;33.90
31675;DHT22;18276;45.520;11.018;2023-03-23T12:46:22;31.30;33.40
31675;DHT22;18276;45.520;11.018;2023-03-23T12:51:43;31.20;32.90
31675;DHT22;18276;45.520;11.018;2023-03-23T12:54:27;31.10;33.10
31675;DHT22;18276;45.520;11.018;2023-03-23T12:56:59;31.20;32.90
31675;DHT22;18276;45.520;11.018;2023-03-23T12:59:39;31.10;33.20
31675;DHT22;18276;45.520;11.018;2023-03-23T13:02:19;31.10;32.90
31675;DHT22;18276;45.520;11.018;2023-03-23T13:05:06;30.80;33.00
31675;DHT22;18276;45.520;11.018;2023-03-23T13:07:45;30.90;33.30
31675;DHT22;18276;45.520;11.018;2023-03-23T13:10:22;31.00;33.20
31675;DHT22;18276;45.520;11.018;2023-03-23T13:12:48;30.50;33.20
31675;DHT22;18276;45.520;11.018;2023-03-23T13:23:43;28.50;35.10
31675;DHT22;18276;45.520;11.018;2023-03-23T13:26:13;28.10;35.80
31675;DHT22;18276;45.520;11.018;2023-03-23T13:28:47;28.10;36.00
31675;DHT22;18276;45.520;11.018;2023-03-23T13:31:15;28.30;35.70
31675;DHT22;18276;45.520;11.018;2023-03-23T13:33:45;28.30;35.30
31675;DHT22;18276;45.520;11.018;2023-03-23T13:36:12;27.80;35.60
31675;DHT22;18276;45.520;11.018;2023-03-23T13:38:39;27.60;35.50
31675;DHT22;18276;45.520;11.018;2023-03-23T13:41:11;27.50;35.50
31675;DHT22;18276;45.520;11.018;2023-03-23T13:43:38;27.90;35.40
31675;DHT22;18276;45.520;11.018;2023-03-23T13:51:33;29.60;32.30
31675;DHT22;18276;45.520;11.018;2023-03-23T13:54:06;30.00;30.60
31675;DHT22;18276;45.520;11.018;2023-03-23T13:56:42;30.00;30.50
31675;DHT22;18276;45.520;11.018;2023-03-23T13:59:16;30.10;30.00
31675;DHT22;18276;45.520;11.018;2023-03-23T14:01:42;30.20;29.80
31675;DHT22;18276;45.520;11.018;2023-03-23T14:04:15;30.20;30.20
31675;DHT22;18276;45.520;11.018;2023-03-23T14:06:41;30.40;30.70
31675;DHT22;18276;45.520;11.018;2023-03-23T14:09:36;30.80;29.90
31675;DHT22;18276;45.520;11.018;2023-03-23T14:12:03;31.20;30.00
31675;DHT22;18276;45.520;11.018;2023-03-23T14:14:39;31.30;29.70
31675;DHT22;18276;45.520;11.018;2023-03-23T14:17:12;30.60;29.00
31675;DHT22;18276;45.520;11.018;2023-03-23T14:19:39;30.00;29.30
31675;DHT22;18276;45.520;11.018;2023-03-23T14:22:14;29.50;29.20
31675;DHT22;18276;45.520;11.018;2023-03-23T14:24:42;29.40;29.70
31675;DHT22;18276;45.520;11.018;2023-03-23T14:27:09;29.60;30.30
31675;DHT22;18276;45.520;11.018;2023-03-23T14:29:35;29.90;30.60
31675;DHT22;18276;45.520;11.018;2023-03-23T14:32:01;30.30;30.20
31675;DHT22;18276;45.520;11.018;2023-03-23T14:34:28;30.60;29.80
31675;DHT22;18276;45.520;11.018;2023-03-23T14:36:55;30.80;29.10
31675;DHT22;18276;45.520;11.018;2023-03-23T14:39:25;30.90;29.00
31675;DHT22;18276;45.520;11.018;2023-03-23T14:41:53;31.10;29.10
31675;DHT22;18276;45.520;11.018;2023-03-23T14:44:24;31.10;29.10
31675;DHT22;18276;45.520;11.018;2023-03-23T14:46:51;30.60;29.30
31675;DHT22;18276;45.520;11.018;2023-03-23T14:49:19;29.80;29.60
31675;DHT22;18276;45.520;11.018;2023-03-23T14:51:47;29.00;30.00
31675;DHT22;18276;45.520;11.018;2023-03-23T14:54:13;28.50;30.50
31675;DHT22;18276;45.520;11.018;2023-03-23T14:56:39;28.20;31.20
31675;DHT22;18276;45.520;11.018;2023-03-23T14:59:06;28.10;32.10
31675;DHT22;18276;45.520;11.018;2023-03-23T15:01:34;27.90;32.70
31675;DHT22;18276;45.520;11.018;2023-03-23T15:04:06;27.80;32.00
31675;DHT22;18276;45.520;11.018;2023-03-23T15:06:35;27.50;31.90
31675;DHT22;18276;45.520;11.018;2023-03-23T15:09:04;27.20;32.60
31675;DHT22;18276;45.520;11.018;2023-03-23T15:11:31;27.20;32.90
31675;DHT22;18276;45.520;11.018;2023-03-23T15:13:59;27.40;32.40
31675;DHT22;18276;45.520;11.018;2023-03-23T15:16:32;27.60;32.40
31675;DHT22;18276;45.520;11.018;2023-03-23T15:18:59;27.80;33.20
31675;DHT22;18276;45.520;11.018;2023-03-23T15:21:28;27.70;34.10
31675;DHT22;18276;45.520;11.018;2023-03-23T15:23:54;27.40;34.70
31675;DHT22;18276;45.520;11.018;2023-03-23T15:26:34;27.10;35.20
31675;DHT22;18276;45.520;11.018;2023-03-23T15:29:00;26.90;35.50
31675;DHT22;18276;45.520;11.018;2023-03-23T15:31:27;26.60;35.70
31675;DHT22;18276;45.520;11.018;2023-03-23T15:33:55;26.50;36.00
31675;DHT22;18276;45.520;11.018;2023-03-23T15:36:22;26.40;36.10
31675;DHT22;18276;45.520;11.018;2023-03-23T15:38:47;26.30;36.20
31675;DHT22;18276;45.520;11.018;2023-03-23T15:41:21;26.20;36.30
31675;DHT22;18276;45.520;11.018;2023-03-23T15:43:51;26.10;36.40
31675;DHT22;18276;45.520;11.018;2023-03-23T15:46:21;25.90;36.10
31675;DHT22;18276;45.520;11.018;2023-03-23T15:48:48;25.70;36.20
31675;DHT22;18276;45.520;11.018;2023-03-23T15:51:15;25.40;36.40
31675;DHT22;18276;45.520;11.018;2023-03-23T15:53:41;25.10;36.80
31675;DHT22;18276;45.520;11.018;2023-03-23T15:56:07;24.90;37.70
31675;DHT22;18276;45.520;11.018;2023-03-23T15:58:34;24.70;38.30
31675;DHT22;18276;45.520;11.018;2023-03-23T16:01:02;24.40;38.90
31675;DHT22;18276;45.520;11.018;2023-03-23T16:03:37;24.10;39.20
31675;DHT22;18276;45.520;11.018;2023-03-23T16:06:05;23.80;39.90
31675;DHT22;18276;45.520;11.018;2023-03-23T16:08:32;23.40;40.60
31675;DHT22;18276;45.520;11.018;2023-03-23T16:10:59;23.00;41.20
31675;DHT22;18276;45.520;11.018;2023-03-23T16:13:26;22.70;42.40
31675;DHT22;18276;45.520;11.018;2023-03-23T16:15:53;22.30;43.10
31675;DHT22;18276;45.520;11.018;2023-03-23T16:18:20;22.00;43.80
31675;DHT22;18276;45.520;11.018;2023-03-23T16:20:48;21.70;44.50
31675;DHT22;18276;45.520;11.018;2023-03-23T16:23:15;21.50;45.10
31675;DHT22;18276;45.520;11.018;2023-03-23T16:25:42;21.30;45.70
31675;DHT22;18276;45.520;11.018;2023-03-23T16:28:12;21.20;46.40
31675;DHT22;18276;45.520;11.018;2023-03-23T16:30:40;21.10;46.70
31675;DHT22;18276;45.520;11.018;2023-03-23T16:33:07;20.90;46.90
31675;DHT22;18276;45.520;11.018;2023-03-23T16:35:35;20.80;47.40
31675;DHT22;18276;45.520;11.018;2023-03-23T16:38:02;20.60;47.80
31675;DHT22;18276;45.520;11.018;2023-03-23T16:40:34;20.50;48.00
31675;DHT22;18276;45.520;11.018;2023-03-23T16:43:01;20.40;48.30
31675;DHT22;18276;45.520;11.018;2023-03-23T16:45:35;20.30;49.00
31675;DHT22;18276;45.520;11.018;2023-03-23T16:48:02;20.20;49.60
31675;DHT22;18276;45.520;11.018;2023-03-23T16:50:31;20.10;50.20
31675;DHT22;18276;45.520;11.018;2023-03-23T16:52:58;20.00;50.80
31675;DHT22;18276;45.520;11.018;2023-03-23T16:55:26;19.80;51.10